createdAt,value
2019-05-05T00:01:22.136Z,10.73
2019-05-05T00:03:58.676Z,13.13
2019-05-05T00:06:27.814Z,9.70
2019-05-05T00:08:56.907Z,9.70
2019-05-05T00:11:54.708Z,11.57
2019-05-05T00:14:35.105Z,10.73
2019-05-05T00:17:15.292Z,9.80
2019-05-05T00:19:45.427Z,10.03
2019-05-05T00:22:15.212Z,12.53
2019-05-05T00:24:44.462Z,11.07
2019-05-05T00:27:14.975Z,11.07
2019-05-05T00:29:45.350Z,10.93
2019-05-05T00:32:15.370Z,10.83
2019-05-05T00:34:44.672Z,10.27
2019-05-05T00:37:15.220Z,10.53
2019-05-05T00:39:47.037Z,10.37
2019-05-05T00:42:16.222Z,12.93
2019-05-05T00:44:45.175Z,16.47
2019-05-05T00:47:32.000Z,11.37
2019-05-05T00:50:01.561Z,10.50
2019-05-05T00:52:30.394Z,12.70
2019-05-05T00:54:59.176Z,14.23
2019-05-05T00:57:28.292Z,11.70
2019-05-05T00:59:57.085Z,10.87
2019-05-05T01:02:38.260Z,10.77
2019-05-05T01:05:25.392Z,13.37
2019-05-05T01:07:54.848Z,13.10
2019-05-05T01:10:24.836Z,11.03
2019-05-05T01:12:54.555Z,11.23
2019-05-05T01:15:25.391Z,13.67
2019-05-05T01:17:55.297Z,12.67
2019-05-05T01:20:25.068Z,10.90
2019-05-05T01:22:55.267Z,11.27
2019-05-05T01:25:25.336Z,16.37
2019-05-05T01:27:54.608Z,15.90
2019-05-05T01:30:29.132Z,13.87
2019-05-05T01:33:05.465Z,15.77
2019-05-05T01:35:42.055Z,16.77
2019-05-05T01:38:17.428Z,14.37
2019-05-05T01:41:00.324Z,11.70
2019-05-05T01:43:29.097Z,15.47
2019-05-05T01:45:58.301Z,15.93
2019-05-05T01:48:27.483Z,13.83
2019-05-05T01:50:56.433Z,14.57
2019-05-05T01:53:25.665Z,16.47
2019-05-05T01:55:54.986Z,14.73
2019-05-05T01:58:24.504Z,14.23
2019-05-05T02:00:54.567Z,15.87
2019-05-05T02:03:24.420Z,16.63
2019-05-05T02:05:54.583Z,17.63
2019-05-05T02:08:24.493Z,16.80
2019-05-05T02:10:54.775Z,16.67
2019-05-05T02:13:25.132Z,17.13
2019-05-05T02:15:55.231Z,17.73
2019-05-05T02:18:25.385Z,19.03
2019-05-05T02:21:07.123Z,17.70
2019-05-05T02:23:37.358Z,16.60
2019-05-05T02:26:07.751Z,20.17
2019-05-05T02:28:45.374Z,21.50
2019-05-05T02:31:30.618Z,21.07
2019-05-05T02:33:59.572Z,18.27
2019-05-05T02:36:28.514Z,17.93
2019-05-05T02:38:57.698Z,18.77
2019-05-05T02:41:26.673Z,19.53
2019-05-05T02:43:56.499Z,20.73
2019-05-05T02:46:44.643Z,25.00
2019-05-05T02:49:15.285Z,22.97
2019-05-05T02:51:45.782Z,20.23
2019-05-05T02:54:16.125Z,20.23
2019-05-05T02:56:47.349Z,23.40
2019-05-05T02:59:25.942Z,21.17
2019-05-05T03:02:17.006Z,22.17
2019-05-05T03:04:46.250Z,20.17
2019-05-05T03:07:17.277Z,25.13
2019-05-05T03:09:47.868Z,25.90
2019-05-05T03:12:19.654Z,26.90
2019-05-05T03:14:50.314Z,29.20
2019-05-05T03:17:20.244Z,24.87
2019-05-05T03:19:49.907Z,31.87
2019-05-05T03:22:19.644Z,30.57
2019-05-05T03:24:48.775Z,28.13
2019-05-05T03:27:17.902Z,27.07
2019-05-05T03:29:47.642Z,32.17
2019-05-05T03:32:16.594Z,28.03
2019-05-05T03:34:45.798Z,31.83
2019-05-05T03:37:15.748Z,27.17
2019-05-05T03:39:49.689Z,26.00
2019-05-05T03:42:41.457Z,27.80
2019-05-05T03:45:23.549Z,26.43
2019-05-05T03:47:54.139Z,30.90
2019-05-05T03:50:23.787Z,26.00
2019-05-05T03:52:54.406Z,28.27
2019-05-05T03:55:24.114Z,27.43
2019-05-05T03:57:53.869Z,23.73
2019-05-05T04:00:34.029Z,23.20
2019-05-05T04:03:07.939Z,23.90
2019-05-05T04:05:40.569Z,20.97
2019-05-05T04:08:09.459Z,22.97
2019-05-05T04:10:38.581Z,21.37
2019-05-05T04:13:08.420Z,22.10
2019-05-05T04:15:39.228Z,20.70
2019-05-05T04:18:14.608Z,21.80
2019-05-05T04:20:44.298Z,19.40
2019-05-05T04:23:14.130Z,20.43
2019-05-05T04:25:43.948Z,20.63
2019-05-05T04:28:13.594Z,17.50
2019-05-05T04:30:44.462Z,19.33
2019-05-05T04:33:14.302Z,20.20
2019-05-05T04:35:44.456Z,19.13
2019-05-05T04:38:14.038Z,24.20
2019-05-05T04:40:43.623Z,19.63
2019-05-05T04:43:14.348Z,17.83
2019-05-05T04:45:43.657Z,17.07
2019-05-05T04:48:17.249Z,17.40
2019-05-05T04:50:58.163Z,18.63
2019-05-05T04:53:32.147Z,16.87
2019-05-05T04:56:01.041Z,19.67
2019-05-05T04:58:30.197Z,18.17
2019-05-05T05:00:58.983Z,17.03
2019-05-05T05:03:35.560Z,14.60
2019-05-05T05:06:11.324Z,13.93
2019-05-05T05:08:40.200Z,13.40
2019-05-05T05:11:09.354Z,16.27
2019-05-05T05:13:38.554Z,14.03
2019-05-05T05:16:07.511Z,13.80
2019-05-05T05:18:36.569Z,14.43
2019-05-05T05:21:05.426Z,13.90
2019-05-05T05:23:34.326Z,12.63
2019-05-05T05:26:05.078Z,13.00
2019-05-05T05:28:34.281Z,15.50
2019-05-05T05:31:03.881Z,12.87
2019-05-05T05:33:34.454Z,13.13
2019-05-05T05:36:04.149Z,12.57
2019-05-05T05:38:34.691Z,14.10
2019-05-05T05:41:09.109Z,14.13
2019-05-05T05:44:03.550Z,13.40
2019-05-05T05:46:41.268Z,13.37
2019-05-05T05:49:18.917Z,13.60
2019-05-05T05:51:47.708Z,13.07
2019-05-05T05:54:16.506Z,15.67
2019-05-05T05:56:45.406Z,12.30
2019-05-05T05:59:14.408Z,12.60
2019-05-05T06:01:43.709Z,12.97
2019-05-05T06:04:14.380Z,11.60
2019-05-05T06:06:43.934Z,14.17
2019-05-05T06:09:14.677Z,12.13
2019-05-05T06:11:43.689Z,11.80
2019-05-05T06:14:14.435Z,12.13
2019-05-05T06:16:44.630Z,13.27
2019-05-05T06:19:14.080Z,10.63
2019-05-05T06:21:44.009Z,11.70
2019-05-05T06:24:13.682Z,13.47
2019-05-05T06:26:44.557Z,12.50
2019-05-05T06:29:14.572Z,11.20
2019-05-05T06:31:44.797Z,11.63
2019-05-05T06:34:14.062Z,13.13
2019-05-05T06:36:44.439Z,11.03
2019-05-05T06:39:13.810Z,11.83
2019-05-05T06:41:58.504Z,10.53
2019-05-05T06:44:33.682Z,9.13
2019-05-05T06:47:05.054Z,10.07
2019-05-05T06:49:34.635Z,9.40
2019-05-05T06:52:04.194Z,9.73
2019-05-05T06:54:34.870Z,11.03
2019-05-05T06:57:04.502Z,9.50
2019-05-05T06:59:34.946Z,8.43
2019-05-05T07:02:04.427Z,7.97
2019-05-05T07:04:34.026Z,8.97
2019-05-05T07:07:05.175Z,7.40
2019-05-05T07:09:33.856Z,7.37
2019-05-05T07:12:04.574Z,6.80
2019-05-05T07:14:34.048Z,17.47
2019-05-05T07:17:05.128Z,5.93
2019-05-05T07:19:34.572Z,7.37
2019-05-05T07:22:04.186Z,6.30
2019-05-05T07:24:34.414Z,6.20
2019-05-05T07:27:04.805Z,7.10
2019-05-05T07:29:34.339Z,6.63
2019-05-05T07:32:04.128Z,8.57
2019-05-05T07:34:50.994Z,9.37
2019-05-05T07:37:19.764Z,7.57
2019-05-05T07:39:48.638Z,6.47
2019-05-05T07:42:17.493Z,9.90
2019-05-05T07:44:46.558Z,6.70
2019-05-05T07:47:15.344Z,6.13
2019-05-05T07:49:44.556Z,6.30
2019-05-05T07:52:15.113Z,6.97
2019-05-05T07:54:44.188Z,7.60
2019-05-05T07:57:14.632Z,7.27
2019-05-05T07:59:45.055Z,6.97
2019-05-05T08:02:14.587Z,6.90
2019-05-05T08:04:43.851Z,8.67
2019-05-05T08:07:14.652Z,6.87
2019-05-05T08:09:44.482Z,6.30
2019-05-05T08:12:13.823Z,5.97
2019-05-05T08:14:44.462Z,8.23
2019-05-05T08:17:39.042Z,6.77
2019-05-05T08:20:14.408Z,6.67
2019-05-05T08:22:44.349Z,6.37
2019-05-05T08:25:18.328Z,6.17
2019-05-05T08:28:08.916Z,6.17
2019-05-05T08:30:46.993Z,5.57
2019-05-05T08:33:16.282Z,7.17
2019-05-05T08:35:45.306Z,5.50
2019-05-05T08:38:14.228Z,6.00
2019-05-05T08:40:43.822Z,5.43
2019-05-05T08:43:13.839Z,5.70
2019-05-05T08:45:44.359Z,6.17
2019-05-05T08:48:14.244Z,5.17
2019-05-05T08:50:47.822Z,6.47
2019-05-05T08:53:16.817Z,5.93
2019-05-05T08:55:54.973Z,4.27
2019-05-05T08:58:23.870Z,4.87
2019-05-05T09:00:53.694Z,5.27
2019-05-05T09:03:24.263Z,5.23
2019-05-05T09:05:54.220Z,5.17
2019-05-05T09:08:24.176Z,5.07
2019-05-05T09:10:55.189Z,4.50
2019-05-05T09:13:36.541Z,4.40
2019-05-05T09:16:06.366Z,5.07
2019-05-05T09:18:38.413Z,8.67
2019-05-05T09:21:07.278Z,3.60
2019-05-05T09:23:37.730Z,3.50
2019-05-05T09:26:38.057Z,8.27
2019-05-05T09:29:14.844Z,6.23
2019-05-05T09:31:45.053Z,3.60
2019-05-05T09:34:14.667Z,3.37
2019-05-05T09:36:44.018Z,4.43
2019-05-05T09:39:13.857Z,3.83
2019-05-05T09:41:44.602Z,3.87
2019-05-05T09:44:13.718Z,3.37
2019-05-05T09:46:44.509Z,5.97
2019-05-05T09:49:14.112Z,3.57
2019-05-05T09:51:43.989Z,4.57
2019-05-05T09:54:16.692Z,4.43
2019-05-05T09:56:44.473Z,3.13
2019-05-05T09:59:13.613Z,3.47
2019-05-05T10:01:44.497Z,6.07
2019-05-05T10:04:13.975Z,2.93
2019-05-05T10:06:47.349Z,3.50
2019-05-05T10:09:14.215Z,3.27
2019-05-05T10:11:45.015Z,2.80
2019-05-05T10:14:14.410Z,2.87
2019-05-05T10:16:43.524Z,3.53
2019-05-05T10:19:13.877Z,2.50
2019-05-05T10:21:44.445Z,3.00
2019-05-05T10:24:28.686Z,5.80
2019-05-05T10:26:54.325Z,3.03
2019-05-05T10:29:23.437Z,3.37
2019-05-05T10:31:53.924Z,2.83
2019-05-05T10:34:24.218Z,3.37
2019-05-05T10:36:53.653Z,2.33
2019-05-05T10:39:33.458Z,2.87
2019-05-05T10:42:04.051Z,3.87
2019-05-05T10:44:34.065Z,3.10
2019-05-05T10:47:04.603Z,5.37
2019-05-05T10:49:33.869Z,3.47
2019-05-05T10:52:03.757Z,4.27
2019-05-05T10:54:43.297Z,3.90
2019-05-05T10:57:04.193Z,2.73
2019-05-05T10:59:34.405Z,2.77
2019-05-05T11:02:04.948Z,4.27
2019-05-05T11:04:34.177Z,2.83
2019-05-05T11:07:04.188Z,4.70
2019-05-05T11:09:33.947Z,5.40
2019-05-05T11:12:02.769Z,2.63
2019-05-05T11:14:33.536Z,4.47
2019-05-05T11:17:04.187Z,2.57
2019-05-05T11:19:33.675Z,2.97
2019-05-05T11:22:02.737Z,2.53
2019-05-05T11:24:31.621Z,2.73
2019-05-05T11:27:00.592Z,3.77
2019-05-05T11:29:29.363Z,3.63
2019-05-05T11:32:00.135Z,4.17
2019-05-05T11:34:30.097Z,4.50
2019-05-05T11:37:07.301Z,5.27
2019-05-05T11:39:36.153Z,3.07
2019-05-05T11:42:05.056Z,2.83
2019-05-05T11:44:34.200Z,2.53
2019-05-05T11:47:03.650Z,3.67
2019-05-05T11:49:33.693Z,4.73
2019-05-05T11:52:04.648Z,3.13
2019-05-05T11:54:36.292Z,3.10
2019-05-05T11:57:10.715Z,2.67
2019-05-05T11:59:41.073Z,2.87
2019-05-05T12:02:10.077Z,1.93
2019-05-05T12:04:38.908Z,2.53
2019-05-05T12:07:07.782Z,2.93
2019-05-05T12:09:48.444Z,3.03
2019-05-05T12:12:17.518Z,3.13
2019-05-05T12:14:47.302Z,2.70
2019-05-05T12:17:19.301Z,2.43
2019-05-05T12:19:48.547Z,4.10
2019-05-05T12:22:17.480Z,2.30
2019-05-05T12:24:47.930Z,1.63
2019-05-05T12:27:31.091Z,3.80
2019-05-05T12:30:04.273Z,3.33
2019-05-05T12:32:34.780Z,3.83
2019-05-05T12:35:04.344Z,2.67
2019-05-05T12:37:34.141Z,2.03
2019-05-05T12:40:04.843Z,2.93
2019-05-05T12:42:33.651Z,2.50
2019-05-05T12:45:05.880Z,1.87
2019-05-05T12:47:41.150Z,2.17
2019-05-05T12:50:10.289Z,2.00
2019-05-05T12:52:39.076Z,3.27
2019-05-05T12:55:08.021Z,2.27
2019-05-05T12:57:36.802Z,3.27
2019-05-05T13:00:07.131Z,3.73
2019-05-05T13:02:35.918Z,2.07
2019-05-05T13:05:05.425Z,1.40
2019-05-05T13:07:34.273Z,2.27
2019-05-05T13:10:04.798Z,1.73
2019-05-05T13:12:34.463Z,4.57
2019-05-05T13:15:04.149Z,1.43
2019-05-05T13:17:33.885Z,1.17
2019-05-05T13:20:13.912Z,2.37
2019-05-05T13:22:54.006Z,1.47
2019-05-05T13:25:56.115Z,1.90
2019-05-05T13:28:19.457Z,1.80
2019-05-05T13:30:48.525Z,4.17
2019-05-05T13:33:17.305Z,2.07
2019-05-05T13:35:46.372Z,2.13
2019-05-05T13:38:15.369Z,1.87
2019-05-05T13:40:44.224Z,3.10
2019-05-05T13:43:14.457Z,1.50
2019-05-05T13:45:54.101Z,2.90
2019-05-05T13:48:22.998Z,1.60
2019-05-05T13:50:55.291Z,2.00
2019-05-05T13:53:24.249Z,2.37
2019-05-05T13:56:02.482Z,5.47
2019-05-05T13:58:24.943Z,3.07
2019-05-05T14:00:54.675Z,1.60
2019-05-05T14:03:23.877Z,1.80
2019-05-05T14:05:54.114Z,4.20
2019-05-05T14:08:23.748Z,1.77
2019-05-05T14:10:54.033Z,1.27
2019-05-05T14:13:24.728Z,1.93
2019-05-05T14:15:54.482Z,1.63
2019-05-05T14:18:23.741Z,2.20
2019-05-05T14:20:52.577Z,2.27
2019-05-05T14:23:23.906Z,1.67
2019-05-05T14:25:54.388Z,1.17
2019-05-05T14:28:23.508Z,1.93
2019-05-05T14:31:04.947Z,1.53
2019-05-05T14:33:54.094Z,2.73
2019-05-05T14:36:39.234Z,1.40
2019-05-05T14:39:28.880Z,1.25
2019-05-05T14:41:57.785Z,1.35
2019-05-05T14:44:27.094Z,1.50
2019-05-05T14:46:55.916Z,1.37
2019-05-05T14:49:25.080Z,3.95
2019-05-05T14:51:54.116Z,2.90
2019-05-05T14:54:23.053Z,2.10
2019-05-05T14:56:51.969Z,2.65
2019-05-05T14:59:20.899Z,2.45
2019-05-05T15:01:50.001Z,1.57
2019-05-05T15:04:20.504Z,4.10
2019-05-05T15:06:58.972Z,2.25
2019-05-05T15:09:33.701Z,2.98
2019-05-05T15:12:21.009Z,1.17
2019-05-05T15:14:49.961Z,3.13
2019-05-05T15:17:18.937Z,1.23
2019-05-05T15:19:47.881Z,1.20
2019-05-05T15:22:16.791Z,2.67
2019-05-05T15:24:45.693Z,3.03
2019-05-05T15:27:14.661Z,1.70
2019-05-05T15:29:43.737Z,3.27
2019-05-05T15:32:14.791Z,3.80
2019-05-05T15:34:43.909Z,2.33
2019-05-05T15:37:14.503Z,1.57
2019-05-05T15:39:44.173Z,1.40
2019-05-05T15:42:13.225Z,1.80
2019-05-05T15:44:43.865Z,2.30
2019-05-05T15:47:12.786Z,2.30
2019-05-05T15:49:41.651Z,1.37
2019-05-05T15:52:10.561Z,3.83
2019-05-05T15:54:39.360Z,3.00
2019-05-05T15:57:09.598Z,2.93
2019-05-05T15:59:38.912Z,2.30
2019-05-05T16:02:13.315Z,1.67
2019-05-05T16:04:41.341Z,1.63
2019-05-05T16:07:19.269Z,2.10
2019-05-05T16:09:48.259Z,3.93
2019-05-05T16:12:17.403Z,1.70
2019-05-05T16:15:13.859Z,1.30
2019-05-05T16:18:09.102Z,1.87
2019-05-05T16:20:44.227Z,1.43
2019-05-05T16:23:18.310Z,3.67
2019-05-05T16:25:47.381Z,1.80
2019-05-05T16:28:16.713Z,3.07
2019-05-05T16:30:45.640Z,2.40
2019-05-05T16:33:14.592Z,1.97
2019-05-05T16:35:43.863Z,2.00
2019-05-05T16:38:16.232Z,2.10
2019-05-05T16:40:45.463Z,4.83
2019-05-05T16:43:16.722Z,3.57
2019-05-05T16:45:45.199Z,3.07
2019-05-05T16:48:14.288Z,4.00
2019-05-05T16:50:44.169Z,2.27
2019-05-05T16:53:34.328Z,3.50
2019-05-05T16:56:04.528Z,2.10
2019-05-05T16:58:33.543Z,1.60
2019-05-05T17:01:03.767Z,1.47
2019-05-05T17:03:32.713Z,4.10
2019-05-05T17:06:03.623Z,4.00
2019-05-05T17:08:33.804Z,1.10
2019-05-05T17:11:03.201Z,2.30
2019-05-05T17:13:49.813Z,2.37
2019-05-05T17:16:40.545Z,2.63
2019-05-05T17:19:16.858Z,2.50
2019-05-05T17:22:04.036Z,3.10
2019-05-05T17:24:34.441Z,3.83
2019-05-05T17:27:03.641Z,4.17
2019-05-05T17:29:34.484Z,3.30
2019-05-05T17:32:03.512Z,2.60
2019-05-05T17:34:33.940Z,2.13
2019-05-05T17:37:04.265Z,4.80
2019-05-05T17:39:35.741Z,2.40
2019-05-05T17:42:23.988Z,2.00
2019-05-05T17:45:15.434Z,3.47
2019-05-05T17:48:09.794Z,3.43
2019-05-05T17:51:07.393Z,2.10
2019-05-05T17:54:13.456Z,1.90
2019-05-05T17:56:42.352Z,2.13
2019-05-05T17:59:11.152Z,4.33
2019-05-05T18:01:40.035Z,4.53
2019-05-05T18:04:09.426Z,2.67
2019-05-05T18:06:44.036Z,3.50
2019-05-05T18:09:19.315Z,2.40
2019-05-05T18:12:05.708Z,1.87
2019-05-05T18:14:35.016Z,4.33
2019-05-05T18:17:04.280Z,2.17
2019-05-05T18:19:34.006Z,2.47
2019-05-05T18:22:03.164Z,4.40
2019-05-05T18:24:33.661Z,3.27
2019-05-05T18:27:04.435Z,4.30
2019-05-05T18:29:34.018Z,5.67
2019-05-05T18:32:04.326Z,7.53
2019-05-05T18:34:33.345Z,3.47
2019-05-05T18:37:03.771Z,2.70
2019-05-05T18:39:34.261Z,1.97
2019-05-05T18:42:08.924Z,2.70
2019-05-05T18:44:44.374Z,4.90
2019-05-05T18:47:18.657Z,4.07
2019-05-05T18:49:47.838Z,1.63
2019-05-05T18:52:16.713Z,3.00
2019-05-05T18:54:45.619Z,2.77
2019-05-05T18:57:14.716Z,2.13
2019-05-05T18:59:44.715Z,1.70
2019-05-05T19:02:31.201Z,2.43
2019-05-05T19:05:17.704Z,2.07
2019-05-05T19:08:07.812Z,2.20
2019-05-05T19:10:36.641Z,3.43
2019-05-05T19:13:05.901Z,1.87
2019-05-05T19:15:35.146Z,1.60
2019-05-05T19:18:06.358Z,2.20
2019-05-05T19:21:05.775Z,1.93
2019-05-05T19:23:35.660Z,2.60
2019-05-05T19:26:07.504Z,2.03
2019-05-05T19:28:44.319Z,2.40
2019-05-05T19:31:06.005Z,4.90
2019-05-05T19:33:35.122Z,2.17
2019-05-05T19:36:04.952Z,3.10
2019-05-05T19:38:34.667Z,3.10
2019-05-05T19:41:04.065Z,2.63
2019-05-05T19:43:34.021Z,2.23
2019-05-05T19:46:04.774Z,2.47
2019-05-05T19:48:34.055Z,3.97
2019-05-05T19:51:09.430Z,2.67
2019-05-05T19:53:38.294Z,4.73
2019-05-05T19:56:07.100Z,2.60
2019-05-05T19:58:36.552Z,3.33
2019-05-05T20:01:06.051Z,3.07
2019-05-05T20:03:35.499Z,4.20
2019-05-05T20:06:05.398Z,3.80
2019-05-05T20:08:41.042Z,3.13
2019-05-05T20:11:05.137Z,2.90
2019-05-05T20:13:34.017Z,2.50
2019-05-05T20:16:08.648Z,3.13
2019-05-05T20:18:37.721Z,3.63
2019-05-05T20:21:07.302Z,3.20
2019-05-05T20:23:36.648Z,3.13
2019-05-05T20:26:05.581Z,6.23
2019-05-05T20:28:34.714Z,4.43
2019-05-05T20:31:03.810Z,4.83
2019-05-05T20:33:48.488Z,2.97
2019-05-05T20:36:20.436Z,3.80
2019-05-05T20:38:51.037Z,4.63
2019-05-05T20:41:21.440Z,5.30
2019-05-05T20:43:50.425Z,4.03
2019-05-05T20:46:19.470Z,6.57
2019-05-05T20:48:48.333Z,4.67
2019-05-05T20:51:17.550Z,3.97
2019-05-05T20:53:49.125Z,5.17
2019-05-05T20:56:17.377Z,4.83
2019-05-05T20:58:46.273Z,3.90
2019-05-05T21:01:15.669Z,4.47
2019-05-05T21:03:44.601Z,6.33
2019-05-05T21:06:14.008Z,4.30
2019-05-05T21:08:44.012Z,5.10
2019-05-05T21:11:14.135Z,4.00
2019-05-05T21:13:45.021Z,4.20
2019-05-05T21:16:14.273Z,5.77
2019-05-05T21:18:43.345Z,5.47
2019-05-05T21:21:17.361Z,5.40
2019-05-05T21:23:54.599Z,5.53
2019-05-05T21:26:47.052Z,6.50
2019-05-05T21:29:16.168Z,5.23
2019-05-05T21:31:45.098Z,4.87
2019-05-05T21:34:14.162Z,8.33
2019-05-05T21:36:44.802Z,7.17
2019-05-05T21:39:14.807Z,4.47
2019-05-05T21:41:43.963Z,6.60
2019-05-05T21:44:14.722Z,5.23
2019-05-05T21:46:43.873Z,6.80
2019-05-05T21:49:13.597Z,7.47
2019-05-05T21:51:57.117Z,8.97
2019-05-05T21:54:40.601Z,7.70
2019-05-05T21:57:31.257Z,5.60
2019-05-05T22:00:00.044Z,7.17
2019-05-05T22:02:28.988Z,7.60
2019-05-05T22:04:58.054Z,10.43
2019-05-05T22:07:27.344Z,8.17
2019-05-05T22:09:56.189Z,8.73
2019-05-05T22:12:24.966Z,6.67
2019-05-05T22:14:55.092Z,6.30
2019-05-05T22:17:24.305Z,5.17
2019-05-05T22:20:04.079Z,5.43
2019-05-05T22:22:36.473Z,5.23
2019-05-05T22:25:05.628Z,7.53
2019-05-05T22:27:34.761Z,7.47
2019-05-05T22:30:10.026Z,7.17
2019-05-05T22:32:34.943Z,5.90
2019-05-05T22:35:04.368Z,5.50
2019-05-05T22:37:34.395Z,5.30
2019-05-05T22:40:03.582Z,8.77
2019-05-05T22:42:34.193Z,5.83
2019-05-05T22:45:04.658Z,6.90
2019-05-05T22:47:34.531Z,11.23
2019-05-05T22:50:04.475Z,8.83
2019-05-05T22:52:34.403Z,6.80
2019-05-05T22:55:04.565Z,7.50
2019-05-05T22:57:34.460Z,6.90
2019-05-05T23:00:04.395Z,8.23
2019-05-05T23:02:35.669Z,7.77
2019-05-05T23:05:14.917Z,7.27
2019-05-05T23:07:43.871Z,7.70
2019-05-05T23:10:14.070Z,6.43
2019-05-05T23:12:43.953Z,6.10
2019-05-05T23:15:14.487Z,7.17
2019-05-05T23:17:54.215Z,8.17
2019-05-05T23:21:08.017Z,8.23
2019-05-05T23:24:08.022Z,7.63
2019-05-05T23:26:38.261Z,7.40
2019-05-05T23:29:07.455Z,8.20
2019-05-05T23:31:36.248Z,8.33
2019-05-05T23:34:05.122Z,8.57
2019-05-05T23:36:34.401Z,10.20
2019-05-05T23:39:05.732Z,9.07
2019-05-05T23:41:36.025Z,6.73
2019-05-05T23:44:05.207Z,9.40
2019-05-05T23:46:34.868Z,6.47
2019-05-05T23:49:04.365Z,6.77
2019-05-05T23:51:34.737Z,8.63
2019-05-05T23:54:04.409Z,8.83
2019-05-05T23:56:34.983Z,8.53
2019-05-05T23:59:04.494Z,7.17
